Terminal Aerodrome Forecast
Issued by NWS Raleigh/Durham, NC

Home | Current Version | Previous Version | Text Only | Print | Product List | Glossary On
Versions: 1 2 3 4 5 6 7 8 9 10 11 12 13 14 15 16 17 18 19 20 21 22 23 24 25 26 27 28 29 30 31 32 33 34
478
FTUS42 KRAH 300111 AAA
TAFGSO
TAF AMD
KGSO 300111Z 3001/3024 VRB03KT P6SM SCT060 BKN200
      TEMPO 3002/3005 6SM SHRA BKN060 OVC100
     FM301400 28006KT P6SM FEW040 SCT060 BKN090=

USA.gov is the U.S. government's official web portal to all federal, state and local government web resources and services.